Ukiah, CA

2:45 AM PDT on August 20, 2014 (GMT -0700)
Ukiah Municipal | Change Station
CLOSE
Current Station
Airport
Location: Ukiah,
Elevation: 614 ft
Nearby Weather Stations

Elev 614 ft 39.13 °N, 123.20 °W | Updated 49 minutes ago

Clear
Clear
60 °F
Feels Like 60 °F
N
7
Wind Variable Wind from SSE

Today
High -- | Low -- °F
--% Chance of Precip.
Yesterday
High -- | Low -- °F
Precip. -- in
6:30 AM 8:00 PM
Waning Crescent, 23% visible
Pressure 29.83 in
Visibility 10.0 miles
Clouds Clear
Dew Point 55 °F
Humidity 83%
Rainfall 0.00 in
Snow Depth Not available.
UV 0 out of 12
Pollen 6.60 out of 12
Air Quality Not available.
Flu Activity Not available.
METAR KUKI 200856Z AUTO 16006KT 10SM CLR 16/13 A2985 RMK AO2 SLP101 T01560128 51009

More Conditions Fewer Conditions

Pressure 29.83 in
Visibility 10.0 miles
Clouds Clear
Dew Point 55 °F
Humidity 83%
Rainfall 0.00 in
Snow Depth Not available.
UV 0 out of 12
Pollen 6.60 out of 12
Air Quality Not available.
Flu Activity Not available.
METAR KUKI 200856Z AUTO 16006KT 10SM CLR 16/13 A2985 RMK AO2 SLP101 T01560128 51009

More Conditions Fewer Conditions

10-Day Weather Forecast

Almanac

Astronomy

Aug. 20, 2014 Rise Set
Actual Time 6:30 AM PDT 8:00 PM PDT
Civil Twilight 6:02 AM PDT 8:29 PM PDT
Nautical Twilight 5:28 AM PDT 9:02 PM PDT
Astronomical Twilight 4:52 AM PDT 9:38 PM PDT
Moon 2:15 AM PDT 4:49 PM PDT
Length of Visible Light 14h 26m
Length of Day
13h 30m
Tomorrow will be 2m 19s shorter.
Waning Crescent, 23% of the Moon is Illuminated
Today
Waning Crescent
Aug 25
New
Sep 2
First Quarter
Sep 8
Full
Sep 15
Last Quarter

Today's Extremes

State Highs State Lows

Community

WunderPhotos

Upload Photos

1,745,604 photos uploaded!

Nearby

Snow Depth

Station Depth Elevation
Echo Peak 1 in 7800 ft
Fallen Leaf 0 in 6300 ft
Hagan's Meadow 0 in 8000 ft
Forestdale Creek 0 in 8029 ft
Blue Lakes 0 in 8000 ft

Earthquake Activity

City Distance Mag. Time & Date
The Geysers, California 35 miles 2.6 8:55 PM PDT
2014-08-13
Rio Dell, California 95 miles 2.5 6:16 PM PDT
2014-08-13
Upper Lake, California 21 miles 2.9 3:32 PM PDT
2014-08-13
Minimum magnitude displayed is 2.5.

Coastal Water Temperatures

Place Temperature
Arena Cove, CA 57.0 °F
North Spit, CA 55.9 °F
Point Reyes, CA 59.0 °F
San Francisco, CA 64.0 °F
Richmond, CA 66.9 °F

Nearby Weather Stations